createdAt,value
2022-10-05T00:02:26.724Z,100.00
2022-10-05T00:04:59.411Z,100.00
2022-10-05T00:07:31.518Z,100.00
2022-10-05T00:10:01.423Z,100.00
2022-10-05T00:12:31.643Z,100.00
2022-10-05T00:15:02.555Z,100.00
2022-10-05T00:17:34.134Z,100.00
2022-10-05T00:20:09.590Z,100.00
2022-10-05T00:22:38.651Z,100.00
2022-10-05T00:25:17.523Z,100.00
2022-10-05T00:27:56.163Z,100.00
2022-10-05T00:30:32.147Z,100.00
2022-10-05T00:33:01.184Z,100.00
2022-10-05T00:35:30.949Z,100.00
2022-10-05T00:37:59.761Z,100.00
2022-10-05T00:40:42.872Z,100.00
2022-10-05T00:43:43.854Z,100.00
2022-10-05T00:46:18.905Z,100.00
2022-10-05T00:49:01.480Z,100.00
2022-10-05T00:51:35.407Z,100.00
2022-10-05T00:54:26.939Z,100.00
2022-10-05T00:57:35.189Z,100.00
2022-10-05T01:00:13.120Z,100.00
2022-10-05T01:02:57.977Z,100.00
2022-10-05T01:05:51.838Z,100.00
2022-10-05T01:08:38.471Z,100.00
2022-10-05T01:11:20.165Z,100.00
2022-10-05T01:14:01.599Z,100.00
2022-10-05T01:16:41.192Z,100.00
2022-10-05T01:19:44.570Z,100.00
2022-10-05T01:22:32.002Z,100.00
2022-10-05T01:25:24.666Z,100.00
2022-10-05T01:28:04.375Z,100.00
2022-10-05T01:30:44.418Z,100.00
2022-10-05T01:33:26.897Z,100.00
2022-10-05T01:36:07.960Z,100.00
2022-10-05T01:38:49.360Z,100.00
2022-10-05T01:41:33.844Z,100.00
2022-10-05T01:44:11.475Z,100.00
2022-10-05T01:46:46.174Z,100.00
2022-10-05T01:49:37.909Z,100.00
2022-10-05T01:52:29.059Z,100.00
2022-10-05T01:55:19.075Z,100.00
2022-10-05T01:58:07.790Z,100.00
2022-10-05T02:00:50.947Z,100.00
2022-10-05T02:03:26.686Z,100.00
2022-10-05T02:06:03.965Z,100.00
2022-10-05T02:08:41.047Z,100.00
2022-10-05T02:11:13.342Z,100.00
2022-10-05T02:13:45.757Z,100.00
2022-10-05T02:16:24.698Z,100.00
2022-10-05T02:18:59.626Z,100.00
2022-10-05T02:21:31.161Z,100.00
2022-10-05T02:24:08.290Z,100.00
2022-10-05T02:26:38.992Z,100.00
2022-10-05T02:29:12.698Z,100.00
2022-10-05T02:31:51.811Z,100.00
2022-10-05T02:34:27.676Z,100.00
2022-10-05T02:37:21.896Z,100.00
2022-10-05T02:40:24.187Z,100.00
2022-10-05T02:43:05.846Z,100.00
2022-10-05T02:45:51.199Z,100.00
2022-10-05T02:48:38.165Z,100.00
2022-10-05T02:51:19.922Z,100.00
2022-10-05T02:54:07.249Z,100.00
2022-10-05T02:56:47.998Z,100.00
2022-10-05T02:59:25.613Z,100.00
2022-10-05T03:02:01.357Z,100.00
2022-10-05T03:04:42.339Z,100.00
2022-10-05T03:07:20.125Z,100.00
2022-10-05T03:10:01.478Z,100.00
2022-10-05T03:12:53.992Z,100.00
2022-10-05T03:15:55.077Z,100.00
2022-10-05T03:18:44.669Z,100.00
2022-10-05T03:21:36.704Z,100.00
2022-10-05T03:24:31.081Z,100.00
2022-10-05T03:27:11.252Z,100.00
2022-10-05T03:29:48.696Z,100.00
2022-10-05T03:32:30.431Z,100.00
2022-10-05T03:35:07.996Z,100.00
2022-10-05T03:37:49.623Z,100.00
2022-10-05T03:40:35.310Z,100.00
2022-10-05T03:43:26.981Z,100.00
2022-10-05T03:46:07.370Z,100.00
2022-10-05T03:48:46.008Z,100.00
2022-10-05T03:51:32.515Z,100.00
2022-10-05T03:54:13.152Z,100.00
2022-10-05T03:56:50.781Z,100.00
2022-10-05T03:59:32.125Z,100.00
2022-10-05T04:02:06.661Z,100.00
2022-10-05T04:04:42.049Z,100.00
2022-10-05T04:07:37.656Z,100.00
2022-10-05T04:10:17.612Z,100.00
2022-10-05T04:12:54.244Z,100.00
2022-10-05T04:15:34.857Z,100.00
2022-10-05T04:18:12.954Z,100.00
2022-10-05T04:20:52.188Z,100.00
2022-10-05T04:23:34.879Z,100.00
2022-10-05T04:26:12.163Z,100.00
2022-10-05T04:28:55.763Z,100.00
2022-10-05T04:31:56.842Z,100.00
2022-10-05T04:35:06.243Z,100.00
2022-10-05T04:37:48.653Z,100.00
2022-10-05T04:40:41.316Z,100.00
2022-10-05T04:43:20.973Z,100.00
2022-10-05T04:46:25.688Z,100.00
2022-10-05T04:49:36.768Z,100.00
2022-10-05T04:52:17.975Z,100.00
2022-10-05T04:55:10.157Z,100.00
2022-10-05T04:57:51.052Z,100.00
2022-10-05T05:00:26.649Z,100.00
2022-10-05T05:03:36.282Z,100.00
2022-10-05T05:06:23.975Z,100.00
2022-10-05T05:09:18.347Z,100.00
2022-10-05T05:12:21.566Z,100.00
2022-10-05T05:15:12.393Z,100.00
2022-10-05T05:18:07.853Z,100.00
2022-10-05T05:20:56.071Z,100.00
2022-10-05T05:23:38.897Z,100.00
2022-10-05T05:26:24.129Z,100.00
2022-10-05T05:29:08.502Z,100.00
2022-10-05T05:31:46.015Z,100.00
2022-10-05T05:34:42.321Z,100.00
2022-10-05T05:37:23.297Z,100.00
2022-10-05T05:40:08.531Z,100.00
2022-10-05T05:42:51.216Z,100.00
2022-10-05T05:45:28.374Z,100.00
2022-10-05T05:48:02.235Z,100.00
2022-10-05T05:50:49.067Z,100.00
2022-10-05T05:53:25.291Z,100.00
2022-10-05T05:56:05.886Z,100.00
2022-10-05T05:58:44.672Z,100.00
2022-10-05T06:01:32.817Z,100.00
2022-10-05T06:04:12.576Z,100.00
2022-10-05T06:06:50.033Z,100.00
2022-10-05T06:09:30.251Z,100.00
2022-10-05T06:12:07.625Z,100.00
2022-10-05T06:14:49.981Z,100.00
2022-10-05T06:17:28.813Z,100.00
2022-10-05T06:20:05.793Z,100.00
2022-10-05T06:22:44.312Z,100.00
2022-10-05T06:25:29.902Z,100.00
2022-10-05T06:28:11.329Z,100.00
2022-10-05T06:30:54.205Z,100.00
2022-10-05T06:33:45.049Z,100.00
2022-10-05T06:36:28.262Z,100.00
2022-10-05T06:39:33.425Z,100.00
2022-10-05T06:42:56.480Z,100.00
2022-10-05T06:45:48.281Z,100.00
2022-10-05T06:48:30.170Z,100.00
2022-10-05T06:51:10.598Z,100.00
2022-10-05T06:53:49.936Z,100.00
2022-10-05T06:56:45.676Z,100.00
2022-10-05T06:59:26.521Z,100.00
2022-10-05T07:02:18.405Z,100.00
2022-10-05T07:05:49.761Z,100.00
2022-10-05T07:08:29.506Z,100.00
2022-10-05T07:11:15.562Z,100.00
2022-10-05T07:14:18.662Z,100.00
2022-10-05T07:17:15.594Z,100.00
2022-10-05T07:19:56.945Z,100.00
2022-10-05T07:23:05.644Z,100.00
2022-10-05T07:25:43.969Z,100.00
2022-10-05T07:28:20.640Z,100.00
2022-10-05T07:31:00.062Z,100.00
2022-10-05T07:33:37.265Z,100.00
2022-10-05T07:36:38.117Z,99.16
2022-10-05T07:39:18.350Z,98.18
2022-10-05T07:41:57.240Z,97.96
2022-10-05T07:44:36.231Z,98.61
2022-10-05T07:47:16.856Z,98.13
2022-10-05T07:49:59.793Z,97.94
2022-10-05T07:52:38.216Z,97.94
2022-10-05T07:55:21.403Z,97.57
2022-10-05T07:58:13.280Z,97.27
2022-10-05T08:01:02.119Z,96.79
2022-10-05T08:03:52.417Z,95.82
2022-10-05T08:06:39.518Z,95.03
2022-10-05T08:09:28.269Z,94.34
2022-10-05T08:12:17.117Z,93.86
2022-10-05T08:14:54.379Z,92.29
2022-10-05T08:17:39.912Z,91.07
2022-10-05T08:20:34.310Z,91.18
2022-10-05T08:23:14.666Z,90.96
2022-10-05T08:25:57.431Z,90.92
2022-10-05T08:28:32.177Z,90.83
2022-10-05T08:31:15.018Z,91.06
2022-10-05T08:33:58.736Z,91.10
2022-10-05T08:36:54.062Z,91.33
2022-10-05T08:39:28.350Z,90.46
2022-10-05T08:42:38.278Z,90.47
2022-10-05T08:46:02.096Z,90.25
2022-10-05T08:49:24.358Z,89.11
2022-10-05T08:52:29.527Z,87.06
2022-10-05T08:55:45.202Z,85.88
2022-10-05T08:59:29.805Z,85.76
2022-10-05T09:02:21.012Z,83.96
2022-10-05T09:05:12.083Z,83.88
2022-10-05T09:08:25.236Z,82.00
2022-10-05T09:11:05.024Z,83.15
2022-10-05T09:14:36.171Z,84.45
2022-10-05T09:17:40.494Z,84.67
2022-10-05T09:20:32.535Z,84.06
2022-10-05T09:23:13.926Z,84.03
2022-10-05T09:26:01.151Z,85.19
2022-10-05T09:28:55.965Z,84.65
2022-10-05T09:32:01.525Z,83.08
2022-10-05T09:34:59.205Z,81.47
2022-10-05T09:37:57.858Z,81.70
2022-10-05T09:41:25.158Z,79.77
2022-10-05T09:45:04.544Z,79.17
2022-10-05T09:48:27.393Z,80.79
2022-10-05T09:51:53.750Z,78.33
2022-10-05T09:55:08.742Z,77.32
2022-10-05T09:58:40.929Z,77.60
2022-10-05T10:01:37.607Z,75.82
2022-10-05T10:04:41.266Z,75.38
2022-10-05T10:07:55.816Z,76.04
2022-10-05T10:11:17.606Z,77.00
2022-10-05T10:14:39.650Z,77.08
2022-10-05T10:17:33.964Z,77.63
2022-10-05T10:20:40.040Z,77.54
2022-10-05T10:24:08.297Z,75.56
2022-10-05T10:27:05.914Z,75.98
2022-10-05T10:30:19.069Z,76.72
2022-10-05T10:33:54.953Z,77.55
2022-10-05T10:36:47.728Z,78.28
2022-10-05T10:39:34.809Z,76.38
2022-10-05T10:42:38.770Z,77.09
2022-10-05T10:45:45.686Z,76.35
2022-10-05T10:48:55.463Z,75.95
2022-10-05T10:51:54.451Z,75.16
2022-10-05T10:55:00.172Z,75.16
2022-10-05T10:57:50.740Z,75.72
2022-10-05T11:00:42.259Z,75.76
2022-10-05T11:04:01.410Z,76.39
2022-10-05T11:07:05.664Z,77.39
2022-10-05T11:10:15.756Z,78.50
2022-10-05T11:13:26.469Z,78.27
2022-10-05T11:16:44.399Z,75.82
2022-10-05T11:20:05.249Z,74.84
2022-10-05T11:22:56.053Z,72.24
2022-10-05T11:26:06.139Z,71.13
2022-10-05T11:29:12.478Z,72.87
2022-10-05T11:32:20.136Z,74.84
2022-10-05T11:35:24.904Z,75.23
2022-10-05T11:38:23.154Z,75.34
2022-10-05T11:41:45.464Z,75.46
2022-10-05T11:45:14.038Z,75.94
2022-10-05T11:48:01.920Z,76.06
2022-10-05T11:50:52.977Z,76.36
2022-10-05T11:53:30.457Z,76.89
2022-10-05T11:56:15.613Z,76.13
2022-10-05T11:58:57.644Z,77.10
2022-10-05T12:01:39.334Z,77.30
2022-10-05T12:04:21.542Z,77.09
2022-10-05T12:07:14.002Z,77.13
2022-10-05T12:10:17.563Z,77.27
2022-10-05T12:13:06.192Z,77.16
2022-10-05T12:15:47.430Z,77.30
2022-10-05T12:18:42.695Z,76.93
2022-10-05T12:21:23.263Z,77.50
2022-10-05T12:24:00.171Z,77.94
2022-10-05T12:27:00.140Z,77.99
2022-10-05T12:29:39.526Z,77.49
2022-10-05T12:32:17.942Z,77.73
2022-10-05T12:35:01.834Z,77.24
2022-10-05T12:37:47.985Z,77.00
2022-10-05T12:40:28.111Z,77.58
2022-10-05T12:43:11.891Z,77.29
2022-10-05T12:46:10.355Z,77.55
2022-10-05T12:49:19.285Z,76.88
2022-10-05T12:51:58.593Z,77.12
2022-10-05T12:54:46.503Z,77.56
2022-10-05T12:57:28.383Z,78.06
2022-10-05T13:00:07.372Z,76.98
2022-10-05T13:02:45.398Z,75.90
2022-10-05T13:05:28.034Z,75.77
2022-10-05T13:08:26.070Z,75.24
2022-10-05T13:11:12.718Z,75.34
2022-10-05T13:13:57.224Z,75.89
2022-10-05T13:16:39.677Z,75.35
2022-10-05T13:19:29.289Z,75.08
2022-10-05T13:22:27.090Z,75.16
2022-10-05T13:25:19.883Z,75.18
2022-10-05T13:28:00.650Z,75.19
2022-10-05T13:30:30.434Z,75.15
2022-10-05T13:33:08.255Z,75.25
2022-10-05T13:35:47.364Z,75.44
2022-10-05T13:38:36.471Z,75.26
2022-10-05T13:41:18.932Z,75.29
2022-10-05T13:44:01.297Z,75.18
2022-10-05T13:46:39.228Z,75.34
2022-10-05T13:49:26.546Z,75.33
2022-10-05T13:52:08.840Z,75.90
2022-10-05T13:54:47.800Z,76.52
2022-10-05T13:57:36.351Z,75.97
2022-10-05T14:00:16.679Z,76.26
2022-10-05T14:02:50.957Z,75.93
2022-10-05T14:05:24.580Z,75.55
2022-10-05T14:07:58.604Z,75.45
2022-10-05T14:10:39.834Z,75.97
2022-10-05T14:13:26.652Z,75.93
2022-10-05T14:16:16.238Z,74.15
2022-10-05T14:18:59.475Z,73.91
2022-10-05T14:21:33.350Z,75.53
2022-10-05T14:24:43.159Z,76.20
2022-10-05T14:27:29.376Z,75.54
2022-10-05T14:30:02.331Z,76.29
2022-10-05T14:32:34.834Z,76.39
2022-10-05T14:35:18.652Z,76.67
2022-10-05T14:37:57.397Z,77.26
2022-10-05T14:40:37.993Z,76.70
2022-10-05T14:43:21.774Z,77.00
2022-10-05T14:45:59.665Z,76.84
2022-10-05T14:48:30.721Z,77.12
2022-10-05T14:51:03.904Z,76.72
2022-10-05T14:53:47.410Z,76.90
2022-10-05T14:56:45.171Z,77.43
2022-10-05T14:59:49.537Z,77.99
2022-10-05T15:02:52.684Z,78.44
2022-10-05T15:05:31.566Z,78.62
2022-10-05T15:08:21.323Z,78.93
2022-10-05T15:11:01.695Z,78.68
2022-10-05T15:13:35.469Z,78.32
2022-10-05T15:16:18.652Z,78.25
2022-10-05T15:18:59.079Z,78.49
2022-10-05T15:21:54.636Z,78.50
2022-10-05T15:24:28.245Z,78.73
2022-10-05T15:27:02.760Z,78.98
2022-10-05T15:29:58.393Z,78.71
2022-10-05T15:32:47.847Z,78.77
2022-10-05T15:35:55.539Z,79.62
2022-10-05T15:38:28.170Z,79.32
2022-10-05T15:41:09.508Z,78.99
2022-10-05T15:44:00.627Z,79.24
2022-10-05T15:46:41.351Z,79.07
2022-10-05T15:49:30.715Z,78.88
2022-10-05T15:52:17.734Z,79.23
2022-10-05T15:55:22.322Z,79.46
2022-10-05T15:58:24.591Z,79.93
2022-10-05T16:01:06.600Z,80.40
2022-10-05T16:04:02.692Z,80.55
2022-10-05T16:07:01.125Z,81.03
2022-10-05T16:09:44.376Z,81.80
2022-10-05T16:12:27.683Z,82.18
2022-10-05T16:15:19.247Z,82.06
2022-10-05T16:18:44.023Z,82.89
2022-10-05T16:21:28.106Z,82.98
2022-10-05T16:24:19.374Z,83.63
2022-10-05T16:26:59.830Z,83.93
2022-10-05T16:29:48.320Z,84.17
2022-10-05T16:32:23.848Z,84.47
2022-10-05T16:35:11.013Z,84.46
2022-10-05T16:37:54.410Z,84.93
2022-10-05T16:40:39.508Z,85.47
2022-10-05T16:43:29.160Z,85.79
2022-10-05T16:46:13.601Z,86.05
2022-10-05T16:48:56.392Z,86.67
2022-10-05T16:51:43.273Z,86.89
2022-10-05T16:54:20.973Z,87.19
2022-10-05T16:56:56.062Z,87.79
2022-10-05T17:00:13.487Z,87.76
2022-10-05T17:03:27.533Z,87.73
2022-10-05T17:06:27.434Z,88.29
2022-10-05T17:09:31.600Z,88.55
2022-10-05T17:12:21.514Z,88.69
2022-10-05T17:15:13.422Z,88.55
2022-10-05T17:18:12.827Z,88.80
2022-10-05T17:20:51.768Z,89.00
2022-10-05T17:23:39.933Z,89.80
2022-10-05T17:26:55.534Z,89.96
2022-10-05T17:29:47.760Z,90.24
2022-10-05T17:32:56.591Z,90.62
2022-10-05T17:35:52.063Z,90.35
2022-10-05T17:38:24.759Z,90.42
2022-10-05T17:41:18.391Z,90.81
2022-10-05T17:44:26.410Z,90.83
2022-10-05T17:46:58.698Z,90.69
2022-10-05T17:50:16.286Z,90.32
2022-10-05T17:53:40.606Z,90.28
2022-10-05T17:56:10.713Z,90.67
2022-10-05T17:59:06.912Z,90.97
2022-10-05T18:01:41.878Z,91.11
2022-10-05T18:04:42.548Z,91.16
2022-10-05T18:07:30.224Z,91.08
2022-10-05T18:10:17.526Z,91.04
2022-10-05T18:12:52.566Z,91.06
2022-10-05T18:15:50.533Z,91.08
2022-10-05T18:18:59.724Z,91.14
2022-10-05T18:21:40.521Z,91.43
2022-10-05T18:24:56.215Z,91.38
2022-10-05T18:28:00.520Z,91.64
2022-10-05T18:30:41.277Z,91.39
2022-10-05T18:33:54.749Z,91.66
2022-10-05T18:36:48.310Z,91.58
2022-10-05T18:39:42.440Z,91.73
2022-10-05T18:42:27.439Z,91.57
2022-10-05T18:45:09.380Z,91.51
2022-10-05T18:47:48.708Z,91.20
2022-10-05T18:50:30.884Z,91.02
2022-10-05T18:53:25.536Z,91.06
2022-10-05T18:56:03.777Z,91.07
2022-10-05T18:58:54.499Z,90.66
2022-10-05T19:01:51.628Z,90.77
2022-10-05T19:04:38.661Z,91.02
2022-10-05T19:07:27.110Z,90.58
2022-10-05T19:10:16.135Z,90.21
2022-10-05T19:13:07.875Z,90.63
2022-10-05T19:15:50.313Z,90.27
2022-10-05T19:18:44.987Z,90.50
2022-10-05T19:21:29.781Z,90.70
2022-10-05T19:24:32.979Z,90.67
2022-10-05T19:27:18.244Z,90.75
2022-10-05T19:30:11.817Z,90.87
2022-10-05T19:33:09.487Z,90.78
2022-10-05T19:36:02.465Z,90.50
2022-10-05T19:38:44.440Z,89.95
2022-10-05T19:41:25.297Z,89.90
2022-10-05T19:44:18.493Z,89.71
2022-10-05T19:47:01.100Z,89.65
2022-10-05T19:49:45.028Z,89.18
2022-10-05T19:52:26.635Z,89.25
2022-10-05T19:55:13.244Z,89.14
2022-10-05T19:57:49.300Z,88.90
2022-10-05T20:00:29.779Z,88.88
2022-10-05T20:03:21.150Z,89.11
2022-10-05T20:05:53.374Z,89.15
2022-10-05T20:08:27.383Z,89.43
2022-10-05T20:11:13.004Z,90.18
2022-10-05T20:13:47.727Z,90.33
2022-10-05T20:16:52.643Z,90.52
2022-10-05T20:19:57.866Z,90.83
2022-10-05T20:22:46.591Z,91.58
2022-10-05T20:25:32.395Z,91.92
2022-10-05T20:28:03.152Z,91.97
2022-10-05T20:30:34.833Z,92.37
2022-10-05T20:33:12.082Z,92.61
2022-10-05T20:35:45.442Z,92.36
2022-10-05T20:38:14.135Z,92.58
2022-10-05T20:40:46.916Z,93.01
2022-10-05T20:43:16.053Z,93.61
2022-10-05T20:45:44.912Z,93.77
2022-10-05T20:48:16.670Z,93.74
2022-10-05T20:50:45.527Z,93.75
2022-10-05T20:53:14.411Z,94.26
2022-10-05T20:55:46.284Z,94.84
2022-10-05T20:58:15.939Z,94.95
2022-10-05T21:01:02.134Z,94.94
2022-10-05T21:03:32.295Z,94.59
2022-10-05T21:06:00.862Z,95.08
2022-10-05T21:08:30.105Z,95.44
2022-10-05T21:10:59.115Z,95.58
2022-10-05T21:13:27.856Z,95.21
2022-10-05T21:15:56.912Z,94.31
2022-10-05T21:18:26.175Z,93.43
2022-10-05T21:21:01.989Z,92.27
2022-10-05T21:23:32.714Z,91.43
2022-10-05T21:26:04.953Z,90.86
2022-10-05T21:28:36.437Z,90.33
2022-10-05T21:31:05.949Z,89.82
2022-10-05T21:33:38.050Z,89.73
2022-10-05T21:36:08.498Z,89.86
2022-10-05T21:38:37.360Z,90.13
2022-10-05T21:41:06.403Z,90.81
2022-10-05T21:43:35.488Z,91.01
2022-10-05T21:46:07.998Z,90.98
2022-10-05T21:48:41.309Z,91.14
2022-10-05T21:51:16.691Z,91.20
2022-10-05T21:53:52.038Z,90.91
2022-10-05T21:56:25.622Z,91.23
2022-10-05T21:58:54.631Z,91.88
2022-10-05T22:01:23.717Z,92.69
2022-10-05T22:03:52.524Z,92.54
2022-10-05T22:06:23.256Z,92.71
2022-10-05T22:08:52.197Z,93.25
2022-10-05T22:11:21.161Z,93.62
2022-10-05T22:13:54.577Z,94.29
2022-10-05T22:16:27.206Z,94.24
2022-10-05T22:18:55.960Z,94.10
2022-10-05T22:21:26.232Z,94.37
2022-10-05T22:23:54.921Z,94.34
2022-10-05T22:26:26.245Z,94.53
2022-10-05T22:28:56.992Z,94.82
2022-10-05T22:31:26.205Z,94.62
2022-10-05T22:33:58.150Z,94.05
2022-10-05T22:36:28.947Z,94.63
2022-10-05T22:38:57.976Z,94.74
2022-10-05T22:41:26.939Z,94.49
2022-10-05T22:43:57.194Z,94.20
2022-10-05T22:46:25.949Z,94.15
2022-10-05T22:48:56.870Z,94.08
2022-10-05T22:51:27.456Z,94.36
2022-10-05T22:53:57.032Z,94.77
2022-10-05T22:56:26.026Z,94.53
2022-10-05T22:58:54.841Z,93.91
2022-10-05T23:01:23.711Z,93.28
2022-10-05T23:03:52.365Z,92.86
2022-10-05T23:06:22.512Z,92.46
2022-10-05T23:08:52.705Z,92.10
2022-10-05T23:11:25.888Z,91.96
2022-10-05T23:13:57.106Z,91.66
2022-10-05T23:16:29.271Z,91.59
2022-10-05T23:18:58.519Z,91.47
2022-10-05T23:21:30.887Z,91.52
2022-10-05T23:24:04.029Z,91.74
2022-10-05T23:26:33.844Z,91.84
2022-10-05T23:29:03.255Z,91.29
2022-10-05T23:31:33.696Z,91.22
2022-10-05T23:34:05.159Z,91.34
2022-10-05T23:36:34.274Z,91.47
2022-10-05T23:39:05.046Z,91.61
2022-10-05T23:41:36.451Z,91.94
2022-10-05T23:44:05.467Z,92.14
2022-10-05T23:46:34.291Z,92.54
2022-10-05T23:49:03.221Z,92.51
2022-10-05T23:51:32.125Z,92.53
2022-10-05T23:54:00.902Z,92.45
2022-10-05T23:56:31.608Z,92.37
2022-10-05T23:59:00.333Z,92.47
